sensor_id;sensor_type;location;lat;lon;timestamp;pressure;altitude;pressure_sealevel;temperature;humidity
40117;BME280;25829;50.228;18.936;2023-04-28T00:00:04;99006.44;;;2.60;61.30
40117;BME280;25829;50.228;18.936;2023-04-28T00:03:05;99013.69;;;2.66;61.64
40117;BME280;25829;50.228;18.936;2023-04-28T00:06:06;99012.25;;;2.72;61.41
40117;BME280;25829;50.228;18.936;2023-04-28T00:09:13;99009.91;;;2.79;61.26
40117;BME280;25829;50.228;18.936;2023-04-28T00:12:14;99005.38;;;2.81;61.51
40117;BME280;25829;50.228;18.936;2023-04-28T00:15:15;99004.84;;;2.77;61.39
40117;BME280;25829;50.228;18.936;2023-04-28T00:18:22;99001.72;;;2.73;61.99
40117;BME280;25829;50.228;18.936;2023-04-28T00:21:26;99019.41;;;2.70;61.84
40117;BME280;25829;50.228;18.936;2023-04-28T00:24:28;99016.13;;;2.68;62.07
40117;BME280;25829;50.228;18.936;2023-04-28T00:27:32;99008.84;;;2.71;61.76
40117;BME280;25829;50.228;18.936;2023-04-28T00:30:33;98998.28;;;2.73;61.90
40117;BME280;25829;50.228;18.936;2023-04-28T00:33:34;99011.00;;;2.76;62.19
40117;BME280;25829;50.228;18.936;2023-04-28T00:36:35;99008.94;;;2.80;61.94
40117;BME280;25829;50.228;18.936;2023-04-28T00:39:36;99001.97;;;2.80;61.70
40117;BME280;25829;50.228;18.936;2023-04-28T00:42:46;99002.63;;;2.82;61.81
40117;BME280;25829;50.228;18.936;2023-04-28T00:45:51;99000.41;;;2.87;61.75
40117;BME280;25829;50.228;18.936;2023-04-28T00:48:52;99000.53;;;2.86;61.69
40117;BME280;25829;50.228;18.936;2023-04-28T00:51:56;99003.84;;;2.88;62.03
40117;BME280;25829;50.228;18.936;2023-04-28T00:54:58;99000.94;;;2.91;62.11
40117;BME280;25829;50.228;18.936;2023-04-28T00:58:03;98998.06;;;2.94;61.85
40117;BME280;25829;50.228;18.936;2023-04-28T01:01:08;99004.75;;;2.96;62.07
40117;BME280;25829;50.228;18.936;2023-04-28T01:04:09;99004.22;;;2.93;61.87
40117;BME280;25829;50.228;18.936;2023-04-28T01:07:13;99004.50;;;2.90;62.05
40117;BME280;25829;50.228;18.936;2023-04-28T01:10:17;99001.44;;;2.77;61.85
40117;BME280;25829;50.228;18.936;2023-04-28T01:13:18;99009.38;;;2.75;61.56
40117;BME280;25829;50.228;18.936;2023-04-28T01:16:19;99008.72;;;2.73;62.11
40117;BME280;25829;50.228;18.936;2023-04-28T01:19:22;99005.53;;;2.69;62.15
40117;BME280;25829;50.228;18.936;2023-04-28T01:22:25;99005.53;;;2.69;62.03
40117;BME280;25829;50.228;18.936;2023-04-28T01:25:26;99006.81;;;2.65;62.50
40117;BME280;25829;50.228;18.936;2023-04-28T01:28:30;99002.41;;;2.66;62.13
40117;BME280;25829;50.228;18.936;2023-04-28T01:31:34;99004.19;;;2.65;62.13
40117;BME280;25829;50.228;18.936;2023-04-28T01:34:38;98990.91;;;2.59;62.10
40117;BME280;25829;50.228;18.936;2023-04-28T01:37:40;98992.47;;;2.51;62.36
40117;BME280;25829;50.228;18.936;2023-04-28T01:40:45;99003.16;;;2.48;62.47
40117;BME280;25829;50.228;18.936;2023-04-28T01:43:51;99001.00;;;2.44;62.34
40117;BME280;25829;50.228;18.936;2023-04-28T01:46:55;99002.38;;;2.38;61.95
40117;BME280;25829;50.228;18.936;2023-04-28T01:49:56;99008.81;;;2.34;62.60
40117;BME280;25829;50.228;18.936;2023-04-28T01:52:57;99011.44;;;2.34;62.48
40117;BME280;25829;50.228;18.936;2023-04-28T01:55:58;99008.81;;;2.34;62.69
40117;BME280;25829;50.228;18.936;2023-04-28T01:58:59;99009.66;;;2.35;62.34
40117;BME280;25829;50.228;18.936;2023-04-28T02:02:04;99007.03;;;2.35;62.90
40117;BME280;25829;50.228;18.936;2023-04-28T02:05:05;99003.63;;;2.34;62.56
40117;BME280;25829;50.228;18.936;2023-04-28T02:08:06;98998.13;;;2.37;62.37
40117;BME280;25829;50.228;18.936;2023-04-28T02:11:07;99000.47;;;2.31;62.44
40117;BME280;25829;50.228;18.936;2023-04-28T02:14:11;99000.09;;;2.25;62.41
40117;BME280;25829;50.228;18.936;2023-04-28T02:17:11;98997.78;;;2.22;62.50
40117;BME280;25829;50.228;18.936;2023-04-28T02:20:15;99000.50;;;2.21;62.72
40117;BME280;25829;50.228;18.936;2023-04-28T02:23:17;98997.50;;;2.16;63.08
40117;BME280;25829;50.228;18.936;2023-04-28T02:26:17;99000.09;;;2.16;63.06
40117;BME280;25829;50.228;18.936;2023-04-28T02:29:18;99005.31;;;2.16;63.28
40117;BME280;25829;50.228;18.936;2023-04-28T02:32:19;98993.28;;;2.15;63.41
40117;BME280;25829;50.228;18.936;2023-04-28T02:35:23;98995.19;;;2.13;63.38
40117;BME280;25829;50.228;18.936;2023-04-28T02:38:25;98987.81;;;2.08;63.15
40117;BME280;25829;50.228;18.936;2023-04-28T02:41:27;98988.91;;;2.06;63.16
40117;BME280;25829;50.228;18.936;2023-04-28T02:44:31;98981.63;;;1.99;63.42
40117;BME280;25829;50.228;18.936;2023-04-28T02:47:32;98981.09;;;1.96;63.78
40117;BME280;25829;50.228;18.936;2023-04-28T02:50:34;98990.84;;;1.94;63.42
40117;BME280;25829;50.228;18.936;2023-04-28T02:53:35;98986.84;;;1.90;63.11
40117;BME280;25829;50.228;18.936;2023-04-28T02:56:39;98986.34;;;1.76;63.15
40117;BME280;25829;50.228;18.936;2023-04-28T02:59:43;98980.88;;;1.60;63.82
40117;BME280;25829;50.228;18.936;2023-04-28T03:02:52;98982.09;;;1.56;64.13
40117;BME280;25829;50.228;18.936;2023-04-28T03:05:58;98979.63;;;1.54;64.18
40117;BME280;25829;50.228;18.936;2023-04-28T03:12:35;98985.78;;;1.53;63.83
40117;BME280;25829;50.228;18.936;2023-04-28T03:15:36;98987.56;;;1.53;63.84
40117;BME280;25829;50.228;18.936;2023-04-28T03:18:39;98979.78;;;1.53;64.13
40117;BME280;25829;50.228;18.936;2023-04-28T03:21:43;98990.19;;;1.53;63.57
40117;BME280;25829;50.228;18.936;2023-04-28T03:24:46;98983.88;;;1.46;63.30
40117;BME280;25829;50.228;18.936;2023-04-28T03:27:47;98980.03;;;1.30;64.02
40117;BME280;25829;50.228;18.936;2023-04-28T03:30:54;98971.56;;;1.28;63.85
40117;BME280;25829;50.228;18.936;2023-04-28T03:33:56;98977.41;;;1.30;64.38
40117;BME280;25829;50.228;18.936;2023-04-28T03:36:59;98973.34;;;1.28;64.20
40117;BME280;25829;50.228;18.936;2023-04-28T03:40:03;98982.50;;;1.22;64.17
40117;BME280;25829;50.228;18.936;2023-04-28T03:43:17;98978.78;;;1.15;64.49
40117;BME280;25829;50.228;18.936;2023-04-28T03:46:50;98972.59;;;1.06;64.75
40117;BME280;25829;50.228;18.936;2023-04-28T03:49:51;98971.09;;;0.94;65.32
40117;BME280;25829;50.228;18.936;2023-04-28T03:52:52;98965.16;;;0.82;65.31
40117;BME280;25829;50.228;18.936;2023-04-28T03:55:56;98958.19;;;0.73;65.76
40117;BME280;25829;50.228;18.936;2023-04-28T03:59:01;98970.09;;;0.76;65.94
40117;BME280;25829;50.228;18.936;2023-04-28T04:02:02;98968.59;;;0.83;66.30
40117;BME280;25829;50.228;18.936;2023-04-28T04:05:03;98973.00;;;0.92;66.13
40117;BME280;25829;50.228;18.936;2023-04-28T04:08:06;98975.09;;;1.08;65.75
40117;BME280;25829;50.228;18.936;2023-04-28T04:11:07;98980.16;;;1.19;65.95
40117;BME280;25829;50.228;18.936;2023-04-28T04:14:08;98974.16;;;1.28;65.19
40117;BME280;25829;50.228;18.936;2023-04-28T04:17:12;98976.75;;;1.28;65.45
40117;BME280;25829;50.228;18.936;2023-04-28T04:20:12;98985.66;;;1.36;65.79
40117;BME280;25829;50.228;18.936;2023-04-28T04:23:16;98987.56;;;1.43;65.42
40117;BME280;25829;50.228;18.936;2023-04-28T04:26:17;98989.75;;;1.48;66.09
40117;BME280;25829;50.228;18.936;2023-04-28T04:29:18;98992.63;;;1.54;65.75
40117;BME280;25829;50.228;18.936;2023-04-28T04:32:19;98999.19;;;1.68;66.08
40117;BME280;25829;50.228;18.936;2023-04-28T04:35:19;98999.47;;;1.85;65.99
40117;BME280;25829;50.228;18.936;2023-04-28T04:38:20;98992.19;;;1.98;66.43
40117;BME280;25829;50.228;18.936;2023-04-28T04:41:27;98988.34;;;2.12;65.78
40117;BME280;25829;50.228;18.936;2023-04-28T04:44:44;98994.72;;;2.27;65.88
40117;BME280;25829;50.228;18.936;2023-04-28T04:47:59;98997.41;;;2.45;65.44
40117;BME280;25829;50.228;18.936;2023-04-28T04:51:00;98994.06;;;2.62;65.44
40117;BME280;25829;50.228;18.936;2023-04-28T04:54:01;98989.22;;;2.77;64.85
40117;BME280;25829;50.228;18.936;2023-04-28T04:57:03;98995.97;;;2.97;64.71
40117;BME280;25829;50.228;18.936;2023-04-28T05:00:24;98986.84;;;3.11;64.13
40117;BME280;25829;50.228;18.936;2023-04-28T05:03:26;98983.72;;;3.26;63.79
40117;BME280;25829;50.228;18.936;2023-04-28T05:06:30;98983.34;;;3.38;63.36
40117;BME280;25829;50.228;18.936;2023-04-28T05:09:33;98979.81;;;3.57;63.01
40117;BME280;25829;50.228;18.936;2023-04-28T05:12:34;98975.78;;;3.81;62.40
40117;BME280;25829;50.228;18.936;2023-04-28T05:15:40;98975.25;;;4.03;61.50
40117;BME280;25829;50.228;18.936;2023-04-28T05:19:14;98980.44;;;4.21;61.07
40117;BME280;25829;50.228;18.936;2023-04-28T05:22:16;98991.97;;;4.36;61.04
40117;BME280;25829;50.228;18.936;2023-04-28T05:25:16;98985.88;;;4.54;60.71
40117;BME280;25829;50.228;18.936;2023-04-28T05:28:17;98990.97;;;4.63;60.19
40117;BME280;25829;50.228;18.936;2023-04-28T05:31:20;98988.72;;;4.77;60.16
40117;BME280;25829;50.228;18.936;2023-04-28T05:34:21;98986.00;;;4.95;59.59
40117;BME280;25829;50.228;18.936;2023-04-28T05:37:22;98988.81;;;5.01;59.42
40117;BME280;25829;50.228;18.936;2023-04-28T05:40:23;98982.94;;;4.99;58.77
40117;BME280;25829;50.228;18.936;2023-04-28T05:43:23;98985.25;;;5.02;58.67
40117;BME280;25829;50.228;18.936;2023-04-28T05:46:24;98983.28;;;5.04;58.80
40117;BME280;25829;50.228;18.936;2023-04-28T05:49:25;98988.06;;;5.17;58.56
40117;BME280;25829;50.228;18.936;2023-04-28T05:52:26;98992.34;;;5.26;57.70
40117;BME280;25829;50.228;18.936;2023-04-28T05:55:27;98981.38;;;5.31;57.17
40117;BME280;25829;50.228;18.936;2023-04-28T05:58:28;98981.69;;;5.36;57.20
40117;BME280;25829;50.228;18.936;2023-04-28T06:01:30;98978.13;;;5.37;56.18
40117;BME280;25829;50.228;18.936;2023-04-28T06:04:31;98985.81;;;5.39;56.03
40117;BME280;25829;50.228;18.936;2023-04-28T06:07:40;98988.91;;;5.42;55.69
40117;BME280;25829;50.228;18.936;2023-04-28T06:10:42;98981.38;;;5.39;55.63
40117;BME280;25829;50.228;18.936;2023-04-28T06:13:45;98984.19;;;5.46;56.03
40117;BME280;25829;50.228;18.936;2023-04-28T06:16:46;98987.47;;;5.56;55.42
40117;BME280;25829;50.228;18.936;2023-04-28T06:19:47;98983.53;;;5.76;55.52
40117;BME280;25829;50.228;18.936;2023-04-28T06:22:50;98988.31;;;5.97;55.08
40117;BME280;25829;50.228;18.936;2023-04-28T06:25:51;98981.28;;;6.06;54.42
40117;BME280;25829;50.228;18.936;2023-04-28T06:28:52;98986.81;;;6.11;54.25
40117;BME280;25829;50.228;18.936;2023-04-28T06:31:53;98987.81;;;6.18;54.27
40117;BME280;25829;50.228;18.936;2023-04-28T06:34:57;98983.34;;;6.35;54.48
40117;BME280;25829;50.228;18.936;2023-04-28T06:37:57;98975.13;;;6.54;54.35
40117;BME280;25829;50.228;18.936;2023-04-28T06:40:58;98989.97;;;6.70;53.83
40117;BME280;25829;50.228;18.936;2023-04-28T06:43:59;98985.47;;;6.87;53.91
40117;BME280;25829;50.228;18.936;2023-04-28T06:47:26;98986.41;;;7.02;52.49
40117;BME280;25829;50.228;18.936;2023-04-28T06:50:28;98986.16;;;7.12;53.12
40117;BME280;25829;50.228;18.936;2023-04-28T06:53:29;98971.81;;;7.31;53.18
40117;BME280;25829;50.228;18.936;2023-04-28T06:56:29;98970.22;;;7.45;52.53
40117;BME280;25829;50.228;18.936;2023-04-28T06:59:30;98964.69;;;7.63;52.79
40117;BME280;25829;50.228;18.936;2023-04-28T07:02:32;98964.25;;;7.82;51.34
40117;BME280;25829;50.228;18.936;2023-04-28T07:05:36;98967.00;;;8.04;51.30
40117;BME280;25829;50.228;18.936;2023-04-28T07:08:43;98956.59;;;8.25;50.18
40117;BME280;25829;50.228;18.936;2023-04-28T07:15:39;98945.34;;;8.61;49.14
40117;BME280;25829;50.228;18.936;2023-04-28T07:18:40;98942.53;;;8.77;48.67
40117;BME280;25829;50.228;18.936;2023-04-28T07:21:50;98941.84;;;9.05;48.58
40117;BME280;25829;50.228;18.936;2023-04-28T07:25:04;98940.94;;;9.34;46.76
40117;BME280;25829;50.228;18.936;2023-04-28T07:28:12;98938.31;;;9.55;47.18
40117;BME280;25829;50.228;18.936;2023-04-28T07:31:16;98930.56;;;9.75;45.49
40117;BME280;25829;50.228;18.936;2023-04-28T07:34:17;98941.22;;;9.88;45.40
40117;BME280;25829;50.228;18.936;2023-04-28T07:40:49;98922.69;;;10.38;44.97
40117;BME280;25829;50.228;18.936;2023-04-28T07:43:50;98925.22;;;10.53;42.32
40117;BME280;25829;50.228;18.936;2023-04-28T07:46:52;98924.44;;;10.66;43.53
40117;BME280;25829;50.228;18.936;2023-04-28T07:49:53;98919.84;;;10.74;41.60
40117;BME280;25829;50.228;18.936;2023-04-28T07:52:57;98924.66;;;10.71;38.17
40117;BME280;25829;50.228;18.936;2023-04-28T07:55:58;98920.66;;;10.75;40.74
40117;BME280;25829;50.228;18.936;2023-04-28T07:58:59;98918.28;;;10.93;41.54
40117;BME280;25829;50.228;18.936;2023-04-28T08:01:59;98925.66;;;11.18;38.35
40117;BME280;25829;50.228;18.936;2023-04-28T08:05:00;98908.41;;;11.35;39.61
40117;BME280;25829;50.228;18.936;2023-04-28T08:08:01;98904.59;;;11.64;39.73
40117;BME280;25829;50.228;18.936;2023-04-28T08:11:02;98914.31;;;11.97;40.44
40117;BME280;25829;50.228;18.936;2023-04-28T08:17:50;98901.53;;;12.72;37.06
40117;BME280;25829;50.228;18.936;2023-04-28T08:20:51;98897.34;;;12.96;37.26
40117;BME280;25829;50.228;18.936;2023-04-28T08:23:52;98899.97;;;13.34;38.72
40117;BME280;25829;50.228;18.936;2023-04-28T08:26:56;98892.31;;;13.76;36.02
40117;BME280;25829;50.228;18.936;2023-04-28T08:29:57;98883.50;;;14.19;36.05
40117;BME280;25829;50.228;18.936;2023-04-28T08:33:00;98884.56;;;14.73;32.59
40117;BME280;25829;50.228;18.936;2023-04-28T08:36:02;98887.13;;;15.10;32.27
40117;BME280;25829;50.228;18.936;2023-04-28T08:39:05;98877.66;;;15.44;33.42
40117;BME280;25829;50.228;18.936;2023-04-28T08:42:07;98869.81;;;16.08;35.40
40117;BME280;25829;50.228;18.936;2023-04-28T08:45:15;98878.84;;;16.71;34.00
40117;BME280;25829;50.228;18.936;2023-04-28T08:48:20;98873.22;;;17.13;32.37
40117;BME280;25829;50.228;18.936;2023-04-28T08:51:29;98860.34;;;17.38;30.51
40117;BME280;25829;50.228;18.936;2023-04-28T08:54:34;98868.63;;;17.76;35.05
40117;BME280;25829;50.228;18.936;2023-04-28T08:57:42;98859.31;;;18.34;34.35
40117;BME280;25829;50.228;18.936;2023-04-28T09:00:43;98863.03;;;18.77;30.88
40117;BME280;25829;50.228;18.936;2023-04-28T09:03:44;98868.13;;;18.78;30.96
40117;BME280;25829;50.228;18.936;2023-04-28T09:06:50;98850.03;;;19.13;32.82
40117;BME280;25829;50.228;18.936;2023-04-28T09:10:20;98847.88;;;19.74;31.24
40117;BME280;25829;50.228;18.936;2023-04-28T09:13:27;98839.47;;;20.08;27.50
40117;BME280;25829;50.228;18.936;2023-04-28T09:16:39;98846.34;;;19.88;25.94
40117;BME280;25829;50.228;18.936;2023-04-28T09:19:41;98841.41;;;19.70;32.59
40117;BME280;25829;50.228;18.936;2023-04-28T09:22:44;98841.44;;;19.75;31.14
40117;BME280;25829;50.228;18.936;2023-04-28T09:25:55;98844.88;;;19.33;28.82
40117;BME280;25829;50.228;18.936;2023-04-28T09:29:11;98838.28;;;18.86;27.77
40117;BME280;25829;50.228;18.936;2023-04-28T09:32:25;98840.34;;;18.57;28.43
40117;BME280;25829;50.228;18.936;2023-04-28T09:35:40;98833.16;;;18.14;30.29
40117;BME280;25829;50.228;18.936;2023-04-28T09:38:44;98829.81;;;17.85;30.61
40117;BME280;25829;50.228;18.936;2023-04-28T09:41:46;98820.63;;;17.59;30.31
40117;BME280;25829;50.228;18.936;2023-04-28T09:44:53;98817.59;;;17.89;31.50
40117;BME280;25829;50.228;18.936;2023-04-28T09:48:08;98808.69;;;18.44;30.15
40117;BME280;25829;50.228;18.936;2023-04-28T09:51:10;98805.47;;;18.91;29.55
40117;BME280;25829;50.228;18.936;2023-04-28T09:54:11;98792.38;;;19.27;29.82
40117;BME280;25829;50.228;18.936;2023-04-28T09:57:13;98793.06;;;19.49;28.95
40117;BME280;25829;50.228;18.936;2023-04-28T10:00:15;98791.22;;;19.55;31.02
40117;BME280;25829;50.228;18.936;2023-04-28T10:03:17;98794.88;;;19.06;28.57
40117;BME280;25829;50.228;18.936;2023-04-28T10:06:20;98787.91;;;18.51;30.66
40117;BME280;25829;50.228;18.936;2023-04-28T10:09:22;98786.41;;;18.11;31.04
40117;BME280;25829;50.228;18.936;2023-04-28T10:12:26;98786.84;;;17.64;31.93
40117;BME280;25829;50.228;18.936;2023-04-28T10:15:27;98781.63;;;17.36;32.60
40117;BME280;25829;50.228;18.936;2023-04-28T10:18:39;98774.41;;;17.03;30.53
40117;BME280;25829;50.228;18.936;2023-04-28T10:21:46;98776.66;;;16.77;31.18
40117;BME280;25829;50.228;18.936;2023-04-28T10:28:22;98759.28;;;16.17;31.73
40117;BME280;25829;50.228;18.936;2023-04-28T10:31:24;98757.09;;;16.14;32.80
40117;BME280;25829;50.228;18.936;2023-04-28T10:34:28;98746.78;;;16.18;32.89
40117;BME280;25829;50.228;18.936;2023-04-28T10:38:06;98747.94;;;16.22;32.06
40117;BME280;25829;50.228;18.936;2023-04-28T10:41:31;98736.00;;;16.24;32.12
40117;BME280;25829;50.228;18.936;2023-04-28T10:47:59;98722.97;;;16.40;31.73
40117;BME280;25829;50.228;18.936;2023-04-28T10:54:07;98723.28;;;16.15;32.59
40117;BME280;25829;50.228;18.936;2023-04-28T10:57:18;98731.50;;;16.13;32.37
40117;BME280;25829;50.228;18.936;2023-04-28T11:00:28;98709.41;;;16.13;32.75
40117;BME280;25829;50.228;18.936;2023-04-28T11:07:14;98707.50;;;15.96;31.80
40117;BME280;25829;50.228;18.936;2023-04-28T11:10:18;98709.25;;;15.91;31.29
40117;BME280;25829;50.228;18.936;2023-04-28T11:13:39;98697.59;;;15.80;30.16
40117;BME280;25829;50.228;18.936;2023-04-28T11:20:48;98692.81;;;15.30;31.54
40117;BME280;25829;50.228;18.936;2023-04-28T11:23:56;98684.47;;;15.15;31.32
40117;BME280;25829;50.228;18.936;2023-04-28T11:26:58;98687.13;;;15.15;31.79
40117;BME280;25829;50.228;18.936;2023-04-28T11:29:59;98679.28;;;15.08;32.14
40117;BME280;25829;50.228;18.936;2023-04-28T11:37:14;98674.44;;;15.17;30.63
40117;BME280;25829;50.228;18.936;2023-04-28T11:40:24;98674.28;;;15.23;32.23
40117;BME280;25829;50.228;18.936;2023-04-28T11:43:29;98673.88;;;15.38;32.14
40117;BME280;25829;50.228;18.936;2023-04-28T11:46:33;98673.38;;;15.53;32.67
40117;BME280;25829;50.228;18.936;2023-04-28T11:52:50;98659.09;;;15.83;32.19
40117;BME280;25829;50.228;18.936;2023-04-28T11:56:04;98659.75;;;15.90;30.73
40117;BME280;25829;50.228;18.936;2023-04-28T11:59:09;98663.81;;;15.80;30.63
40117;BME280;25829;50.228;18.936;2023-04-28T12:02:24;98665.81;;;15.73;30.01
40117;BME280;25829;50.228;18.936;2023-04-28T12:05:43;98656.25;;;15.61;30.59
40117;BME280;25829;50.228;18.936;2023-04-28T12:08:48;98655.47;;;15.37;29.55
40117;BME280;25829;50.228;18.936;2023-04-28T12:11:56;98647.28;;;15.26;31.46
40117;BME280;25829;50.228;18.936;2023-04-28T12:15:02;98640.44;;;15.19;31.86
40117;BME280;25829;50.228;18.936;2023-04-28T12:18:09;98639.75;;;15.23;31.97
40117;BME280;25829;50.228;18.936;2023-04-28T12:21:20;98637.66;;;15.37;32.83
40117;BME280;25829;50.228;18.936;2023-04-28T12:24:21;98633.75;;;15.51;32.70
40117;BME280;25829;50.228;18.936;2023-04-28T12:27:22;98632.88;;;15.63;30.42
40117;BME280;25829;50.228;18.936;2023-04-28T12:30:24;98628.13;;;15.65;30.52
40117;BME280;25829;50.228;18.936;2023-04-28T12:33:28;98623.47;;;15.72;31.50
40117;BME280;25829;50.228;18.936;2023-04-28T12:36:29;98611.00;;;15.72;31.60
40117;BME280;25829;50.228;18.936;2023-04-28T12:39:32;98602.69;;;15.69;31.90
40117;BME280;25829;50.228;18.936;2023-04-28T12:42:36;98603.25;;;15.71;32.09
40117;BME280;25829;50.228;18.936;2023-04-28T12:45:43;98600.03;;;15.69;30.36
40117;BME280;25829;50.228;18.936;2023-04-28T12:48:44;98605.72;;;15.61;29.41
40117;BME280;25829;50.228;18.936;2023-04-28T12:51:45;98590.16;;;15.41;30.21
40117;BME280;25829;50.228;18.936;2023-04-28T12:54:47;98591.47;;;15.26;31.24
40117;BME280;25829;50.228;18.936;2023-04-28T12:57:48;98586.59;;;15.23;31.92
40117;BME280;25829;50.228;18.936;2023-04-28T13:00:55;98580.84;;;15.26;31.67
40117;BME280;25829;50.228;18.936;2023-04-28T13:03:57;98564.44;;;15.29;32.36
40117;BME280;25829;50.228;18.936;2023-04-28T13:06:58;98568.88;;;15.41;32.00
40117;BME280;25829;50.228;18.936;2023-04-28T13:10:03;98560.31;;;15.50;31.48
40117;BME280;25829;50.228;18.936;2023-04-28T13:13:03;98573.78;;;15.61;31.58
40117;BME280;25829;50.228;18.936;2023-04-28T13:16:05;98568.34;;;15.67;30.97
40117;BME280;25829;50.228;18.936;2023-04-28T13:19:05;98566.00;;;15.71;31.73
40117;BME280;25829;50.228;18.936;2023-04-28T13:22:13;98556.50;;;15.75;31.72
40117;BME280;25829;50.228;18.936;2023-04-28T13:25:14;98566.91;;;15.76;31.04
40117;BME280;25829;50.228;18.936;2023-04-28T13:28:15;98561.34;;;15.78;31.05
40117;BME280;25829;50.228;18.936;2023-04-28T13:31:17;98545.78;;;15.70;31.04
40117;BME280;25829;50.228;18.936;2023-04-28T13:34:18;98553.09;;;15.63;31.67
40117;BME280;25829;50.228;18.936;2023-04-28T13:37:19;98548.13;;;15.66;30.32
40117;BME280;25829;50.228;18.936;2023-04-28T13:40:20;98539.88;;;15.68;31.56
40117;BME280;25829;50.228;18.936;2023-04-28T13:43:21;98537.34;;;15.73;31.62
40117;BME280;25829;50.228;18.936;2023-04-28T13:46:22;98542.31;;;15.69;30.37
40117;BME280;25829;50.228;18.936;2023-04-28T13:49:23;98526.84;;;15.66;30.85
40117;BME280;25829;50.228;18.936;2023-04-28T13:52:35;98527.31;;;15.63;29.57
40117;BME280;25829;50.228;18.936;2023-04-28T13:55:40;98530.03;;;15.51;29.78
40117;BME280;25829;50.228;18.936;2023-04-28T13:58:40;98517.03;;;15.38;29.66
40117;BME280;25829;50.228;18.936;2023-04-28T14:01:46;98521.19;;;15.22;30.85
40117;BME280;25829;50.228;18.936;2023-04-28T14:04:47;98529.09;;;15.17;30.77
40117;BME280;25829;50.228;18.936;2023-04-28T14:07:53;98530.81;;;15.12;30.82
40117;BME280;25829;50.228;18.936;2023-04-28T14:10:54;98516.16;;;15.09;31.57
40117;BME280;25829;50.228;18.936;2023-04-28T14:13:55;98512.47;;;15.10;31.44
40117;BME280;25829;50.228;18.936;2023-04-28T14:16:57;98516.72;;;15.11;31.49
40117;BME280;25829;50.228;18.936;2023-04-28T14:20:01;98513.34;;;15.16;31.73
40117;BME280;25829;50.228;18.936;2023-04-28T14:23:02;98501.78;;;15.22;31.98
40117;BME280;25829;50.228;18.936;2023-04-28T14:26:03;98503.28;;;15.29;32.20
40117;BME280;25829;50.228;18.936;2023-04-28T14:29:04;98499.69;;;15.36;32.12
40117;BME280;25829;50.228;18.936;2023-04-28T14:32:15;98504.06;;;15.42;33.25
40117;BME280;25829;50.228;18.936;2023-04-28T14:35:16;98493.50;;;15.47;33.24
40117;BME280;25829;50.228;18.936;2023-04-28T14:38:17;98499.63;;;15.47;32.79
40117;BME280;25829;50.228;18.936;2023-04-28T14:41:18;98493.50;;;15.47;32.68
40117;BME280;25829;50.228;18.936;2023-04-28T14:44:18;98487.72;;;15.50;33.06
40117;BME280;25829;50.228;18.936;2023-04-28T14:47:23;98491.50;;;15.54;32.45
40117;BME280;25829;50.228;18.936;2023-04-28T14:50:24;98493.63;;;15.52;31.96
40117;BME280;25829;50.228;18.936;2023-04-28T14:53:25;98491.97;;;15.51;32.48
40117;BME280;25829;50.228;18.936;2023-04-28T14:56:26;98495.69;;;15.50;32.53
40117;BME280;25829;50.228;18.936;2023-04-28T14:59:27;98496.75;;;15.49;32.52
40117;BME280;25829;50.228;18.936;2023-04-28T15:02:27;98486.91;;;15.49;32.99
40117;BME280;25829;50.228;18.936;2023-04-28T15:05:29;98483.06;;;15.57;32.87
40117;BME280;25829;50.228;18.936;2023-04-28T15:08:31;98490.56;;;15.60;32.70
40117;BME280;25829;50.228;18.936;2023-04-28T15:11:31;98488.97;;;15.59;32.62
40117;BME280;25829;50.228;18.936;2023-04-28T15:14:32;98486.53;;;15.58;32.43
40117;BME280;25829;50.228;18.936;2023-04-28T15:17:33;98476.94;;;15.56;32.35
40117;BME280;25829;50.228;18.936;2023-04-28T15:20:34;98477.75;;;15.57;32.56
40117;BME280;25829;50.228;18.936;2023-04-28T15:23:37;98480.97;;;15.59;32.48
40117;BME280;25829;50.228;18.936;2023-04-28T15:26:38;98475.88;;;15.58;32.59
40117;BME280;25829;50.228;18.936;2023-04-28T15:29:39;98468.75;;;15.58;32.82
40117;BME280;25829;50.228;18.936;2023-04-28T15:32:55;98467.91;;;15.58;32.46
40117;BME280;25829;50.228;18.936;2023-04-28T15:35:56;98463.66;;;15.56;32.46
40117;BME280;25829;50.228;18.936;2023-04-28T15:38:59;98463.56;;;15.51;32.57
40117;BME280;25829;50.228;18.936;2023-04-28T15:42:03;98463.78;;;15.50;32.66
40117;BME280;25829;50.228;18.936;2023-04-28T15:45:07;98461.38;;;15.48;32.91
40117;BME280;25829;50.228;18.936;2023-04-28T15:48:41;98450.50;;;15.50;32.90
40117;BME280;25829;50.228;18.936;2023-04-28T15:51:43;98447.75;;;15.45;33.53
40117;BME280;25829;50.228;18.936;2023-04-28T15:58:14;98439.06;;;15.49;33.56
40117;BME280;25829;50.228;18.936;2023-04-28T16:01:15;98435.34;;;15.50;33.55
40117;BME280;25829;50.228;18.936;2023-04-28T16:04:16;98432.47;;;15.52;33.54
40117;BME280;25829;50.228;18.936;2023-04-28T16:07:24;98435.94;;;15.52;33.30
40117;BME280;25829;50.228;18.936;2023-04-28T16:10:25;98433.75;;;15.49;33.69
40117;BME280;25829;50.228;18.936;2023-04-28T16:13:29;98432.69;;;15.50;33.76
40117;BME280;25829;50.228;18.936;2023-04-28T16:16:36;98427.63;;;15.49;34.01
40117;BME280;25829;50.228;18.936;2023-04-28T16:19:42;98431.09;;;15.49;33.91
40117;BME280;25829;50.228;18.936;2023-04-28T16:22:43;98433.16;;;15.47;33.76
40117;BME280;25829;50.228;18.936;2023-04-28T16:25:51;98432.03;;;15.43;33.37
40117;BME280;25829;50.228;18.936;2023-04-28T16:28:53;98428.50;;;15.38;33.78
40117;BME280;25829;50.228;18.936;2023-04-28T16:31:55;98421.00;;;15.35;33.78
40117;BME280;25829;50.228;18.936;2023-04-28T16:35:03;98423.00;;;15.27;33.40
40117;BME280;25829;50.228;18.936;2023-04-28T16:38:05;98415.03;;;15.16;33.18
40117;BME280;25829;50.228;18.936;2023-04-28T16:41:09;98409.06;;;15.08;33.65
40117;BME280;25829;50.228;18.936;2023-04-28T16:44:17;98403.41;;;15.05;33.78
40117;BME280;25829;50.228;18.936;2023-04-28T16:47:20;98411.63;;;15.03;33.62
40117;BME280;25829;50.228;18.936;2023-04-28T16:50:23;98407.84;;;14.99;34.05